< < Back
Terminal Aerodrome Forecast


Current Version              Previous Versions:   1  2  3  4  5  6  7  8  9  

Terminal Aerodrome Forecast

054
FTUS44 KBMX 271100
TAFANB
TAF
KANB 271136Z 2712/2812 27005KT P6SM SCT025 OVC050
     FM271400 31010G18KT P6SM SCT025 BKN035
     FM272200 33004KT P6SM FEW040=

Latest METAR

236
SAUS70 KWBC 271900 RRE
MTRANB
METAR KANB 271853Z AUTO 31008KT 10SM OVC043 08/M03 A3035 RMK AO2 SLP283
T00781028


USA.gov is the U.S. government's official web portal to all federal, state and local government web resources and services.